Aérodrome :
LOGIN :

S'inscrire | Disclaimer

   EN    FR    IT 

 










Légende :    VFR   VFR Marginal   IFR   IFR Intensif   IFR Très Intensif
Visi : 
Plafond : 
>= 8 km
>= 3000ft
5 à 8 km
1000 à 3000 ft
1500m à 5 km
500 à 1000 ft
800 à 1500m
200 à 500 ft
< 800m
< 200 ft
Symboles :   Orages  Brouillard  Fortes neiges  Fortes précipitations  Vent > 20 kt
SIGMETs :   Divers  Orages  Givrage  Turbulence  Onde Orograph.  Cendres Volcan.






- Altitude de l'aérodrome : 70 ft
- Code IATA : LEI


LEAM - Almeria

DERNIER METAR :
  • 030130Z AUTO 36004KT CAVOK 19/17 Q1012

METARs EXPIRÉS :
  • 030100Z AUTO VRB02KT CAVOK 19/18 Q1013
  • 030030Z AUTO 02004KT 350V050 CAVOK 20/17 Q1013
  • 030000Z AUTO 01002KT CAVOK 20/18 Q1013
  • 022330Z AUTO VRB01KT 9999 SCT006 20/18 Q1013
  • 022300Z AUTO 00000KT CAVOK 20/18 Q1014

TAF TAF LEAM
Valide du 02 à 21h jusqu'au 03 à 21h UTC


022000Z 0221/0321 VRB03KT 9999 FEW030 TX25/0313Z TN17/0305Z
PROB40
TEMPO 0223/0308 1500 BR BCFG BKN003
BECMG 0310/0312 21018KT
PROB30
TEMPO 0312/0320 21018G28KT



MET'MAP, la Météo Aéronautique d'un coup d'oeil ! - Copyright ORBIFLY Décembre 2007 - Disclaimer

ORBIFLY MET'MAP TEAM :

Programmation & Développement : Alexandra Zaïnal
Sur une idée originale de : Baudouin d'Aumeries
Assistance à la programmation : Marc-Olivier Méhu
Soutien technique & logistique : Manuel Goepfert

Contact : metmap@orbifly.com




SOURCES & CREDITS :

   NOAA